Accueil
METAR-TAF:

METAR-TAF

Aéroports :

Aéroport international de Berne

Berne, Suisse

latitude: 46-55N, longitude: 007-30E, altitude: 505 m

Observation

Le bulletin a été fait il y a 35 minutes, à 18:50 UTC
Vent 1 kt de direction variable
Température 9°C
Humidité 93%
Pression 1022 hPa
Visibilité: 2200 m
brume

METAR: LSZB 191850Z AUTO VRB01KT 2200 BR NCD 09/08 Q1022

Heure: 21:25 (19:25 UTC)

Prévision

Le bulletin a été fait il y a 27 minutes, à 18:58 UTC
Prévision valable du 19 à 18 UTC au 19 à 24 UTC
Vent 2 kt de direction variable
Visibilité: 2500 m
brume
Probabilité 40%
du 19 à 20 UTC au 19 à 24 UTC
Visibilité: 0400 m
à une hauteur de 200 ft
brouillard

TAF: LSZB 191858Z 1918/1924 VRB02KT 2500 BR NSC PROB40 1920/1924 0400 FG VV002

Observations et prévisions météorologiques de plus de 4000 aéroports (messages METAR et TAF).

Les stations disponibles sont représentées par des disques jaunes et rouges sur la carte.

Passer la souris dessus pour voir le nom de la station.

Cliquer dessus pour voir les observations et prévisions météorologiques.

Pour changer de carte: cliquez sur les boutons verts avec une croix noire pour zoomer, sur le bouton vert avec un tiret pour effectuer un zoom arrière, ou sur les flèches vertes pour les cartes adjacentes.


METAR-TAF: